sensor_id;sensor_type;location;lat;lon;timestamp;temperature;humidity
70734;DHT22;58320;48.804;9.252;2023-02-11T00:00:34;-1.80;78.10
70734;DHT22;58320;48.804;9.252;2023-02-11T00:03:03;-1.90;78.90
70734;DHT22;58320;48.804;9.252;2023-02-11T00:05:29;-1.90;78.70
70734;DHT22;58320;48.804;9.252;2023-02-11T00:07:55;-1.90;78.40
70734;DHT22;58320;48.804;9.252;2023-02-11T00:10:20;-1.90;78.60
70734;DHT22;58320;48.804;9.252;2023-02-11T00:12:46;-1.90;78.80
70734;DHT22;58320;48.804;9.252;2023-02-11T00:15:12;-1.90;79.00
70734;DHT22;58320;48.804;9.252;2023-02-11T00:17:37;-1.90;79.20
70734;DHT22;58320;48.804;9.252;2023-02-11T00:20:03;-1.90;79.40
70734;DHT22;58320;48.804;9.252;2023-02-11T00:22:30;-1.90;79.40
70734;DHT22;58320;48.804;9.252;2023-02-11T00:24:56;-1.90;79.40
70734;DHT22;58320;48.804;9.252;2023-02-11T00:27:22;-1.90;79.30
70734;DHT22;58320;48.804;9.252;2023-02-11T00:29:47;-1.90;79.20
70734;DHT22;58320;48.804;9.252;2023-02-11T00:32:13;-1.90;79.30
70734;DHT22;58320;48.804;9.252;2023-02-11T00:34:39;-1.90;79.10
70734;DHT22;58320;48.804;9.252;2023-02-11T00:37:05;-1.90;79.20
70734;DHT22;58320;48.804;9.252;2023-02-11T00:39:31;-1.90;79.40
70734;DHT22;58320;48.804;9.252;2023-02-11T00:41:57;-1.90;79.10
70734;DHT22;58320;48.804;9.252;2023-02-11T00:44:23;-1.80;79.10
70734;DHT22;58320;48.804;9.252;2023-02-11T00:46:50;-1.80;78.70
70734;DHT22;58320;48.804;9.252;2023-02-11T00:49:15;-1.80;78.80
70734;DHT22;58320;48.804;9.252;2023-02-11T00:51:41;-1.80;78.40
70734;DHT22;58320;48.804;9.252;2023-02-11T00:54:07;-1.80;78.40
70734;DHT22;58320;48.804;9.252;2023-02-11T00:56:33;-1.70;78.30
70734;DHT22;58320;48.804;9.252;2023-02-11T00:58:59;-1.70;77.90
70734;DHT22;58320;48.804;9.252;2023-02-11T01:01:25;-1.70;77.60
70734;DHT22;58320;48.804;9.252;2023-02-11T01:03:51;-1.70;77.60
70734;DHT22;58320;48.804;9.252;2023-02-11T01:06:17;-1.60;77.50
70734;DHT22;58320;48.804;9.252;2023-02-11T01:08:43;-1.70;77.70
70734;DHT22;58320;48.804;9.252;2023-02-11T01:11:15;-1.80;77.80
70734;DHT22;58320;48.804;9.252;2023-02-11T01:13:42;-1.80;78.00
70734;DHT22;58320;48.804;9.252;2023-02-11T01:16:10;-1.80;78.20
70734;DHT22;58320;48.804;9.252;2023-02-11T01:18:36;-1.90;78.60
70734;DHT22;58320;48.804;9.252;2023-02-11T01:21:03;-1.90;78.70
70734;DHT22;58320;48.804;9.252;2023-02-11T01:23:29;-2.00;78.80
70734;DHT22;58320;48.804;9.252;2023-02-11T01:25:55;-2.00;79.00
70734;DHT22;58320;48.804;9.252;2023-02-11T01:28:23;-2.00;79.40
70734;DHT22;58320;48.804;9.252;2023-02-11T01:30:51;-2.10;79.40
70734;DHT22;58320;48.804;9.252;2023-02-11T01:33:17;-2.00;79.50
70734;DHT22;58320;48.804;9.252;2023-02-11T01:35:44;-2.00;79.40
70734;DHT22;58320;48.804;9.252;2023-02-11T01:38:19;-2.00;79.30
70734;DHT22;58320;48.804;9.252;2023-02-11T01:41:01;-2.00;79.30
70734;DHT22;58320;48.804;9.252;2023-02-11T01:43:32;-2.00;79.50
70734;DHT22;58320;48.804;9.252;2023-02-11T01:49:05;-1.80;78.50
70734;DHT22;58320;48.804;9.252;2023-02-11T01:51:40;-1.90;78.80
70734;DHT22;58320;48.804;9.252;2023-02-11T01:54:11;-1.80;78.80
70734;DHT22;58320;48.804;9.252;2023-02-11T01:56:59;-1.80;78.70
70734;DHT22;58320;48.804;9.252;2023-02-11T02:02:44;-1.60;77.70
70734;DHT22;58320;48.804;9.252;2023-02-11T02:08:30;-1.60;77.20
70734;DHT22;58320;48.804;9.252;2023-02-11T02:10:58;-1.70;77.40
70734;DHT22;58320;48.804;9.252;2023-02-11T02:13:26;-1.70;77.50
70734;DHT22;58320;48.804;9.252;2023-02-11T02:16:01;-1.70;77.70
70734;DHT22;58320;48.804;9.252;2023-02-11T02:30:28;-1.60;78.10
70734;DHT22;58320;48.804;9.252;2023-02-11T02:47:17;-1.80;78.20
70734;DHT22;58320;48.804;9.252;2023-02-11T02:49:42;-1.80;78.60
70734;DHT22;58320;48.804;9.252;2023-02-11T02:52:24;-1.80;78.90
70734;DHT22;58320;48.804;9.252;2023-02-11T02:55:06;-1.90;79.30
70734;DHT22;58320;48.804;9.252;2023-02-11T03:08:52;-2.10;79.60
70734;DHT22;58320;48.804;9.252;2023-02-11T03:11:22;-2.00;79.80
70734;DHT22;58320;48.804;9.252;2023-02-11T03:13:49;-2.10;79.80
70734;DHT22;58320;48.804;9.252;2023-02-11T03:16:24;-2.10;80.00
70734;DHT22;58320;48.804;9.252;2023-02-11T03:19:08;-2.10;80.60
70734;DHT22;58320;48.804;9.252;2023-02-11T03:21:40;-2.10;80.50
70734;DHT22;58320;48.804;9.252;2023-02-11T03:24:23;-2.10;80.50
70734;DHT22;58320;48.804;9.252;2023-02-11T03:26:57;-2.10;80.50
70734;DHT22;58320;48.804;9.252;2023-02-11T03:29:35;-2.10;80.80
70734;DHT22;58320;48.804;9.252;2023-02-11T03:32:55;-2.10;80.60
70734;DHT22;58320;48.804;9.252;2023-02-11T03:36:07;-2.00;80.70
70734;DHT22;58320;48.804;9.252;2023-02-11T03:38:40;-2.00;80.60
70734;DHT22;58320;48.804;9.252;2023-02-11T03:41:10;-2.00;80.50
70734;DHT22;58320;48.804;9.252;2023-02-11T03:43:43;-2.00;80.50
70734;DHT22;58320;48.804;9.252;2023-02-11T03:46:13;-1.90;80.60
70734;DHT22;58320;48.804;9.252;2023-02-11T03:48:45;-1.90;80.30
70734;DHT22;58320;48.804;9.252;2023-02-11T03:51:15;-1.80;80.00
70734;DHT22;58320;48.804;9.252;2023-02-11T03:53:43;-1.70;80.00
70734;DHT22;58320;48.804;9.252;2023-02-11T03:56:14;-1.70;79.90
70734;DHT22;58320;48.804;9.252;2023-02-11T03:58:45;-1.60;79.60
70734;DHT22;58320;48.804;9.252;2023-02-11T04:01:12;-1.50;79.50
70734;DHT22;58320;48.804;9.252;2023-02-11T04:03:38;-1.50;79.30
70734;DHT22;58320;48.804;9.252;2023-02-11T04:06:04;-1.40;79.10
70734;DHT22;58320;48.804;9.252;2023-02-11T04:08:30;-1.40;78.90
70734;DHT22;58320;48.804;9.252;2023-02-11T04:10:57;-1.40;79.10
70734;DHT22;58320;48.804;9.252;2023-02-11T04:13:23;-1.40;79.10
70734;DHT22;58320;48.804;9.252;2023-02-11T04:15:49;-1.30;79.30
70734;DHT22;58320;48.804;9.252;2023-02-11T04:18:15;-1.20;79.50
70734;DHT22;58320;48.804;9.252;2023-02-11T04:20:41;-1.10;79.50
70734;DHT22;58320;48.804;9.252;2023-02-11T04:23:07;-1.00;78.90
70734;DHT22;58320;48.804;9.252;2023-02-11T04:25:33;-1.00;78.50
70734;DHT22;58320;48.804;9.252;2023-02-11T04:27:58;-1.00;77.60
70734;DHT22;58320;48.804;9.252;2023-02-11T04:30:24;-0.90;77.70
70734;DHT22;58320;48.804;9.252;2023-02-11T04:32:50;-0.90;77.40
70734;DHT22;58320;48.804;9.252;2023-02-11T04:35:15;-1.00;76.80
70734;DHT22;58320;48.804;9.252;2023-02-11T04:37:41;-0.90;77.10
70734;DHT22;58320;48.804;9.252;2023-02-11T04:40:08;-0.90;77.00
70734;DHT22;58320;48.804;9.252;2023-02-11T04:42:34;-0.90;77.00
70734;DHT22;58320;48.804;9.252;2023-02-11T04:44:59;-0.80;76.70
70734;DHT22;58320;48.804;9.252;2023-02-11T04:47:26;-0.80;76.50
70734;DHT22;58320;48.804;9.252;2023-02-11T04:49:51;-0.70;76.70
70734;DHT22;58320;48.804;9.252;2023-02-11T04:52:17;-0.70;76.80
70734;DHT22;58320;48.804;9.252;2023-02-11T04:54:44;-0.70;76.80
70734;DHT22;58320;48.804;9.252;2023-02-11T04:57:10;-0.70;76.80
70734;DHT22;58320;48.804;9.252;2023-02-11T04:59:35;-0.60;76.60
70734;DHT22;58320;48.804;9.252;2023-02-11T05:02:01;-0.60;76.80
70734;DHT22;58320;48.804;9.252;2023-02-11T05:04:28;-0.50;76.70
70734;DHT22;58320;48.804;9.252;2023-02-11T05:06:54;-0.50;76.60
70734;DHT22;58320;48.804;9.252;2023-02-11T05:09:20;-0.50;76.40
70734;DHT22;58320;48.804;9.252;2023-02-11T05:11:45;-0.40;76.20
70734;DHT22;58320;48.804;9.252;2023-02-11T05:14:11;-0.40;76.10
70734;DHT22;58320;48.804;9.252;2023-02-11T05:16:37;-0.30;75.80
70734;DHT22;58320;48.804;9.252;2023-02-11T05:19:03;-0.30;75.20
70734;DHT22;58320;48.804;9.252;2023-02-11T05:21:29;-0.30;74.70
70734;DHT22;58320;48.804;9.252;2023-02-11T05:23:54;-0.20;74.40
70734;DHT22;58320;48.804;9.252;2023-02-11T05:26:20;-0.30;74.30
70734;DHT22;58320;48.804;9.252;2023-02-11T05:28:46;-0.30;74.30
70734;DHT22;58320;48.804;9.252;2023-02-11T05:31:12;-0.30;74.20
70734;DHT22;58320;48.804;9.252;2023-02-11T05:33:39;-0.30;74.00
70734;DHT22;58320;48.804;9.252;2023-02-11T05:36:08;-0.30;73.90
70734;DHT22;58320;48.804;9.252;2023-02-11T05:38:36;-0.30;74.10
70734;DHT22;58320;48.804;9.252;2023-02-11T05:41:02;-0.20;74.10
70734;DHT22;58320;48.804;9.252;2023-02-11T05:43:29;-0.20;73.80
70734;DHT22;58320;48.804;9.252;2023-02-11T05:45:54;-0.20;73.60
70734;DHT22;58320;48.804;9.252;2023-02-11T05:48:20;-0.20;73.40
70734;DHT22;58320;48.804;9.252;2023-02-11T05:50:46;-0.20;73.60
70734;DHT22;58320;48.804;9.252;2023-02-11T05:53:12;-0.10;73.60
70734;DHT22;58320;48.804;9.252;2023-02-11T05:55:38;-0.10;73.50
70734;DHT22;58320;48.804;9.252;2023-02-11T05:58:04;-0.10;73.50
70734;DHT22;58320;48.804;9.252;2023-02-11T06:00:31;0.00;73.00
70734;DHT22;58320;48.804;9.252;2023-02-11T06:02:56;0.10;73.00
70734;DHT22;58320;48.804;9.252;2023-02-11T06:05:22;0.10;72.80
70734;DHT22;58320;48.804;9.252;2023-02-11T06:07:48;0.10;72.50
70734;DHT22;58320;48.804;9.252;2023-02-11T06:10:14;0.20;72.50
70734;DHT22;58320;48.804;9.252;2023-02-11T06:12:39;0.20;72.20
70734;DHT22;58320;48.804;9.252;2023-02-11T06:15:05;0.20;72.30
70734;DHT22;58320;48.804;9.252;2023-02-11T06:17:32;0.20;72.40
70734;DHT22;58320;48.804;9.252;2023-02-11T06:20:02;0.20;72.20
70734;DHT22;58320;48.804;9.252;2023-02-11T06:22:30;0.20;72.40
70734;DHT22;58320;48.804;9.252;2023-02-11T06:24:56;0.20;72.60
70734;DHT22;58320;48.804;9.252;2023-02-11T06:27:22;0.30;72.60
70734;DHT22;58320;48.804;9.252;2023-02-11T06:29:48;0.30;72.40
70734;DHT22;58320;48.804;9.252;2023-02-11T06:32:14;0.30;72.50
70734;DHT22;58320;48.804;9.252;2023-02-11T06:34:39;0.30;72.80
70734;DHT22;58320;48.804;9.252;2023-02-11T06:37:05;0.30;73.10
70734;DHT22;58320;48.804;9.252;2023-02-11T06:39:31;0.30;73.10
70734;DHT22;58320;48.804;9.252;2023-02-11T06:41:57;0.30;73.10
70734;DHT22;58320;48.804;9.252;2023-02-11T06:44:23;0.30;73.10
70734;DHT22;58320;48.804;9.252;2023-02-11T06:46:49;0.20;73.50
70734;DHT22;58320;48.804;9.252;2023-02-11T06:49:14;0.20;73.90
70734;DHT22;58320;48.804;9.252;2023-02-11T06:51:40;0.20;73.80
70734;DHT22;58320;48.804;9.252;2023-02-11T06:54:07;0.10;73.90
70734;DHT22;58320;48.804;9.252;2023-02-11T06:56:32;0.20;73.80
70734;DHT22;58320;48.804;9.252;2023-02-11T06:58:59;0.20;73.50
70734;DHT22;58320;48.804;9.252;2023-02-11T07:01:26;0.30;73.40
70734;DHT22;58320;48.804;9.252;2023-02-11T07:03:52;0.40;73.60
70734;DHT22;58320;48.804;9.252;2023-02-11T07:06:20;0.40;73.50
70734;DHT22;58320;48.804;9.252;2023-02-11T07:08:49;0.40;73.50
70734;DHT22;58320;48.804;9.252;2023-02-11T07:11:18;0.40;73.60
70734;DHT22;58320;48.804;9.252;2023-02-11T07:13:46;0.50;73.60
70734;DHT22;58320;48.804;9.252;2023-02-11T07:16:14;0.40;73.50
70734;DHT22;58320;48.804;9.252;2023-02-11T07:18:41;0.50;73.40
70734;DHT22;58320;48.804;9.252;2023-02-11T07:21:09;0.50;73.40
70734;DHT22;58320;48.804;9.252;2023-02-11T07:23:37;0.60;73.20
70734;DHT22;58320;48.804;9.252;2023-02-11T07:26:10;0.70;73.10
70734;DHT22;58320;48.804;9.252;2023-02-11T07:28:38;0.70;72.70
70734;DHT22;58320;48.804;9.252;2023-02-11T07:31:16;0.80;72.50
70734;DHT22;58320;48.804;9.252;2023-02-11T07:33:50;0.90;72.30
70734;DHT22;58320;48.804;9.252;2023-02-11T07:36:17;0.90;72.10
70734;DHT22;58320;48.804;9.252;2023-02-11T07:38:44;1.00;71.80
70734;DHT22;58320;48.804;9.252;2023-02-11T07:41:12;1.00;71.50
70734;DHT22;58320;48.804;9.252;2023-02-11T07:43:39;1.10;71.20
70734;DHT22;58320;48.804;9.252;2023-02-11T07:46:08;1.20;70.90
70734;DHT22;58320;48.804;9.252;2023-02-11T07:48:35;1.30;70.80
70734;DHT22;58320;48.804;9.252;2023-02-11T07:51:09;1.40;70.60
70734;DHT22;58320;48.804;9.252;2023-02-11T07:53:37;1.50;69.80
70734;DHT22;58320;48.804;9.252;2023-02-11T07:56:04;1.60;69.50
70734;DHT22;58320;48.804;9.252;2023-02-11T07:58:31;1.70;69.20
70734;DHT22;58320;48.804;9.252;2023-02-11T08:01:02;1.70;69.40
70734;DHT22;58320;48.804;9.252;2023-02-11T08:03:29;1.80;69.60
70734;DHT22;58320;48.804;9.252;2023-02-11T08:05:55;1.80;69.00
70734;DHT22;58320;48.804;9.252;2023-02-11T08:08:21;1.80;69.20
70734;DHT22;58320;48.804;9.252;2023-02-11T08:10:47;1.90;69.10
70734;DHT22;58320;48.804;9.252;2023-02-11T08:13:12;2.00;68.60
70734;DHT22;58320;48.804;9.252;2023-02-11T08:15:38;2.10;68.60
70734;DHT22;58320;48.804;9.252;2023-02-11T08:18:04;2.30;68.00
70734;DHT22;58320;48.804;9.252;2023-02-11T08:20:29;2.50;66.90
70734;DHT22;58320;48.804;9.252;2023-02-11T08:22:55;2.50;66.70
70734;DHT22;58320;48.804;9.252;2023-02-11T08:25:21;2.50;66.60
70734;DHT22;58320;48.804;9.252;2023-02-11T08:27:46;2.60;67.00
70734;DHT22;58320;48.804;9.252;2023-02-11T08:30:13;2.70;66.00
70734;DHT22;58320;48.804;9.252;2023-02-11T08:32:38;2.70;66.00
70734;DHT22;58320;48.804;9.252;2023-02-11T08:35:05;2.80;66.00
70734;DHT22;58320;48.804;9.252;2023-02-11T08:37:37;2.90;65.40
70734;DHT22;58320;48.804;9.252;2023-02-11T08:40:03;2.80;66.00
70734;DHT22;58320;48.804;9.252;2023-02-11T08:42:29;2.70;66.20
70734;DHT22;58320;48.804;9.252;2023-02-11T08:44:54;2.70;66.30
70734;DHT22;58320;48.804;9.252;2023-02-11T08:47:20;2.90;66.30
70734;DHT22;58320;48.804;9.252;2023-02-11T08:49:46;3.10;65.90
70734;DHT22;58320;48.804;9.252;2023-02-11T08:52:12;3.30;65.00
70734;DHT22;58320;48.804;9.252;2023-02-11T08:54:37;3.60;64.40
70734;DHT22;58320;48.804;9.252;2023-02-11T08:57:03;3.70;63.90
70734;DHT22;58320;48.804;9.252;2023-02-11T08:59:29;4.00;63.80
70734;DHT22;58320;48.804;9.252;2023-02-11T09:01:55;4.20;62.30
70734;DHT22;58320;48.804;9.252;2023-02-11T09:04:22;4.20;61.50
70734;DHT22;58320;48.804;9.252;2023-02-11T09:06:47;4.00;62.00
70734;DHT22;58320;48.804;9.252;2023-02-11T09:09:14;4.00;61.90
70734;DHT22;58320;48.804;9.252;2023-02-11T09:11:41;4.10;62.20
70734;DHT22;58320;48.804;9.252;2023-02-11T09:14:18;4.20;61.80
70734;DHT22;58320;48.804;9.252;2023-02-11T09:16:46;4.20;61.20
70734;DHT22;58320;48.804;9.252;2023-02-11T09:19:12;4.20;61.50
70734;DHT22;58320;48.804;9.252;2023-02-11T09:21:38;4.30;61.60
70734;DHT22;58320;48.804;9.252;2023-02-11T09:24:04;4.40;61.30
70734;DHT22;58320;48.804;9.252;2023-02-11T09:26:32;4.50;60.80
70734;DHT22;58320;48.804;9.252;2023-02-11T09:29:00;4.60;60.50
70734;DHT22;58320;48.804;9.252;2023-02-11T09:31:28;4.60;60.80
70734;DHT22;58320;48.804;9.252;2023-02-11T09:33:58;4.70;60.30
70734;DHT22;58320;48.804;9.252;2023-02-11T09:36:37;4.80;59.90
70734;DHT22;58320;48.804;9.252;2023-02-11T09:39:05;4.60;60.20
70734;DHT22;58320;48.804;9.252;2023-02-11T09:44:23;4.60;60.30
70734;DHT22;58320;48.804;9.252;2023-02-11T09:46:59;4.60;60.70
70734;DHT22;58320;48.804;9.252;2023-02-11T09:49:49;4.60;60.80
70734;DHT22;58320;48.804;9.252;2023-02-11T09:52:20;4.80;60.50
70734;DHT22;58320;48.804;9.252;2023-02-11T09:54:56;4.90;60.00
70734;DHT22;58320;48.804;9.252;2023-02-11T09:57:34;4.90;60.00
70734;DHT22;58320;48.804;9.252;2023-02-11T10:00:11;5.00;60.10
70734;DHT22;58320;48.804;9.252;2023-02-11T10:17:44;6.60;56.00
70734;DHT22;58320;48.804;9.252;2023-02-11T10:23:20;7.10;54.50
70734;DHT22;58320;48.804;9.252;2023-02-11T10:25:51;7.20;54.40
70734;DHT22;58320;48.804;9.252;2023-02-11T10:28:21;7.40;54.20
70734;DHT22;58320;48.804;9.252;2023-02-11T10:33:40;7.50;53.80
70734;DHT22;58320;48.804;9.252;2023-02-11T10:36:10;7.70;53.20
70734;DHT22;58320;48.804;9.252;2023-02-11T10:38:37;7.80;53.40
70734;DHT22;58320;48.804;9.252;2023-02-11T10:41:04;8.00;53.00
70734;DHT22;58320;48.804;9.252;2023-02-11T10:43:31;8.10;52.20
70734;DHT22;58320;48.804;9.252;2023-02-11T10:45:59;8.10;52.20
70734;DHT22;58320;48.804;9.252;2023-02-11T10:48:48;8.00;52.50
70734;DHT22;58320;48.804;9.252;2023-02-11T10:53:44;8.00;52.70
70734;DHT22;58320;48.804;9.252;2023-02-11T10:56:19;8.10;53.00
70734;DHT22;58320;48.804;9.252;2023-02-11T11:01:40;8.30;52.30
70734;DHT22;58320;48.804;9.252;2023-02-11T11:04:39;8.60;51.80
70734;DHT22;58320;48.804;9.252;2023-02-11T11:09:57;9.00;50.40
70734;DHT22;58320;48.804;9.252;2023-02-11T11:12:35;9.70;49.80
70734;DHT22;58320;48.804;9.252;2023-02-11T11:17:36;11.80;45.90
70734;DHT22;58320;48.804;9.252;2023-02-11T11:20:35;12.70;43.30
70734;DHT22;58320;48.804;9.252;2023-02-11T11:23:19;13.60;41.70
70734;DHT22;58320;48.804;9.252;2023-02-11T11:26:07;14.30;40.10
70734;DHT22;58320;48.804;9.252;2023-02-11T11:28:42;15.10;38.50
70734;DHT22;58320;48.804;9.252;2023-02-11T11:31:30;15.70;38.40
70734;DHT22;58320;48.804;9.252;2023-02-11T11:34:00;16.20;37.30
70734;DHT22;58320;48.804;9.252;2023-02-11T11:36:37;16.60;36.40
70734;DHT22;58320;48.804;9.252;2023-02-11T11:39:30;16.40;36.60
70734;DHT22;58320;48.804;9.252;2023-02-11T11:41:59;16.70;35.50
70734;DHT22;58320;48.804;9.252;2023-02-11T11:50:11;18.60;33.30
70734;DHT22;58320;48.804;9.252;2023-02-11T11:52:49;18.90;33.10
70734;DHT22;58320;48.804;9.252;2023-02-11T11:55:40;19.30;32.60
70734;DHT22;58320;48.804;9.252;2023-02-11T11:58:16;19.50;32.70
70734;DHT22;58320;48.804;9.252;2023-02-11T12:00:58;20.10;31.70
70734;DHT22;58320;48.804;9.252;2023-02-11T12:03:53;19.90;31.80
70734;DHT22;58320;48.804;9.252;2023-02-11T12:06:59;19.90;31.70
70734;DHT22;58320;48.804;9.252;2023-02-11T12:18:13;17.40;34.80
70734;DHT22;58320;48.804;9.252;2023-02-11T12:20:48;16.80;36.20
70734;DHT22;58320;48.804;9.252;2023-02-11T12:30:02;15.70;38.70
70734;DHT22;58320;48.804;9.252;2023-02-11T12:32:41;15.50;38.80
70734;DHT22;58320;48.804;9.252;2023-02-11T12:43:37;13.50;43.20
70734;DHT22;58320;48.804;9.252;2023-02-11T12:54:57;12.40;45.90
70734;DHT22;58320;48.804;9.252;2023-02-11T12:57:28;12.00;46.30
70734;DHT22;58320;48.804;9.252;2023-02-11T13:00:12;11.90;47.10
70734;DHT22;58320;48.804;9.252;2023-02-11T13:03:10;11.70;47.50
70734;DHT22;58320;48.804;9.252;2023-02-11T13:05:44;11.20;48.80
70734;DHT22;58320;48.804;9.252;2023-02-11T13:11:02;10.60;51.10
70734;DHT22;58320;48.804;9.252;2023-02-11T13:24:47;10.80;51.80
70734;DHT22;58320;48.804;9.252;2023-02-11T13:27:21;11.00;51.30
70734;DHT22;58320;48.804;9.252;2023-02-11T13:30:19;11.00;51.40
70734;DHT22;58320;48.804;9.252;2023-02-11T13:35:36;11.00;52.00
70734;DHT22;58320;48.804;9.252;2023-02-11T13:40:42;10.80;52.70
70734;DHT22;58320;48.804;9.252;2023-02-11T13:43:21;10.80;52.50
70734;DHT22;58320;48.804;9.252;2023-02-11T13:45:49;10.80;53.10
70734;DHT22;58320;48.804;9.252;2023-02-11T13:48:23;11.00;52.50
70734;DHT22;58320;48.804;9.252;2023-02-11T13:50:53;11.10;52.00
70734;DHT22;58320;48.804;9.252;2023-02-11T13:53:24;11.20;52.00
70734;DHT22;58320;48.804;9.252;2023-02-11T13:55:53;11.20;52.30
70734;DHT22;58320;48.804;9.252;2023-02-11T13:58:33;11.30;51.40
70734;DHT22;58320;48.804;9.252;2023-02-11T14:01:01;11.30;51.50
70734;DHT22;58320;48.804;9.252;2023-02-11T14:03:36;11.20;51.90
70734;DHT22;58320;48.804;9.252;2023-02-11T14:06:27;11.30;51.70
70734;DHT22;58320;48.804;9.252;2023-02-11T14:19:44;11.70;50.50
70734;DHT22;58320;48.804;9.252;2023-02-11T14:25:15;12.00;49.90
70734;DHT22;58320;48.804;9.252;2023-02-11T14:27:50;11.70;50.60
70734;DHT22;58320;48.804;9.252;2023-02-11T14:30:28;11.50;51.10
70734;DHT22;58320;48.804;9.252;2023-02-11T14:41:45;11.90;49.90
70734;DHT22;58320;48.804;9.252;2023-02-11T14:44:19;11.90;50.10
70734;DHT22;58320;48.804;9.252;2023-02-11T14:46:49;12.00;49.70
70734;DHT22;58320;48.804;9.252;2023-02-11T14:49:37;12.10;49.20
70734;DHT22;58320;48.804;9.252;2023-02-11T14:52:26;12.30;48.40
70734;DHT22;58320;48.804;9.252;2023-02-11T14:55:39;12.40;47.90
70734;DHT22;58320;48.804;9.252;2023-02-11T14:58:15;12.40;48.20
70734;DHT22;58320;48.804;9.252;2023-02-11T15:00:50;12.40;48.20
70734;DHT22;58320;48.804;9.252;2023-02-11T15:03:40;12.10;48.90
70734;DHT22;58320;48.804;9.252;2023-02-11T15:06:22;11.80;49.60
70734;DHT22;58320;48.804;9.252;2023-02-11T15:09:18;11.80;49.20
70734;DHT22;58320;48.804;9.252;2023-02-11T15:11:49;11.60;48.90
70734;DHT22;58320;48.804;9.252;2023-02-11T15:16:56;11.60;49.20
70734;DHT22;58320;48.804;9.252;2023-02-11T15:19:36;11.70;49.20
70734;DHT22;58320;48.804;9.252;2023-02-11T15:22:05;11.80;48.90
70734;DHT22;58320;48.804;9.252;2023-02-11T15:24:35;12.00;47.90
70734;DHT22;58320;48.804;9.252;2023-02-11T15:27:11;12.00;47.80
70734;DHT22;58320;48.804;9.252;2023-02-11T15:29:45;11.80;48.60
70734;DHT22;58320;48.804;9.252;2023-02-11T15:32:21;11.60;48.80
70734;DHT22;58320;48.804;9.252;2023-02-11T15:34:51;11.50;49.10
70734;DHT22;58320;48.804;9.252;2023-02-11T15:39:47;11.80;49.20
70734;DHT22;58320;48.804;9.252;2023-02-11T15:44:44;11.40;49.40
70734;DHT22;58320;48.804;9.252;2023-02-11T15:47:21;11.10;50.30
70734;DHT22;58320;48.804;9.252;2023-02-11T15:49:47;11.00;51.10
70734;DHT22;58320;48.804;9.252;2023-02-11T15:52:21;11.00;51.10
70734;DHT22;58320;48.804;9.252;2023-02-11T15:54:49;10.70;51.40
70734;DHT22;58320;48.804;9.252;2023-02-11T15:57:15;10.30;52.40
70734;DHT22;58320;48.804;9.252;2023-02-11T15:59:47;9.90;53.60
70734;DHT22;58320;48.804;9.252;2023-02-11T16:02:34;9.50;54.60
70734;DHT22;58320;48.804;9.252;2023-02-11T16:05:07;9.20;55.70
70734;DHT22;58320;48.804;9.252;2023-02-11T16:07:44;9.00;56.40
70734;DHT22;58320;48.804;9.252;2023-02-11T16:10:18;8.80;57.00
70734;DHT22;58320;48.804;9.252;2023-02-11T16:13:42;8.60;57.50
70734;DHT22;58320;48.804;9.252;2023-02-11T16:15:53;8.50;58.00
70734;DHT22;58320;48.804;9.252;2023-02-11T16:20:50;8.20;59.10
70734;DHT22;58320;48.804;9.252;2023-02-11T16:23:42;8.10;59.70
70734;DHT22;58320;48.804;9.252;2023-02-11T16:26:37;8.00;60.50
70734;DHT22;58320;48.804;9.252;2023-02-11T16:29:12;8.00;60.80
70734;DHT22;58320;48.804;9.252;2023-02-11T16:31:42;7.90;60.80
70734;DHT22;58320;48.804;9.252;2023-02-11T16:34:18;7.90;61.70
70734;DHT22;58320;48.804;9.252;2023-02-11T16:36:46;7.80;61.60
70734;DHT22;58320;48.804;9.252;2023-02-11T16:39:13;7.70;61.70
70734;DHT22;58320;48.804;9.252;2023-02-11T16:41:39;7.70;61.90
70734;DHT22;58320;48.804;9.252;2023-02-11T16:44:05;7.60;62.20
70734;DHT22;58320;48.804;9.252;2023-02-11T16:46:31;7.60;62.40
70734;DHT22;58320;48.804;9.252;2023-02-11T16:48:58;7.50;62.40
70734;DHT22;58320;48.804;9.252;2023-02-11T16:51:31;7.50;62.80
70734;DHT22;58320;48.804;9.252;2023-02-11T16:53:57;7.40;62.80
70734;DHT22;58320;48.804;9.252;2023-02-11T16:56:23;7.40;63.00
70734;DHT22;58320;48.804;9.252;2023-02-11T16:58:49;7.40;63.10
70734;DHT22;58320;48.804;9.252;2023-02-11T17:01:14;7.30;63.30
70734;DHT22;58320;48.804;9.252;2023-02-11T17:03:41;7.30;63.70
70734;DHT22;58320;48.804;9.252;2023-02-11T17:06:11;7.30;63.90
70734;DHT22;58320;48.804;9.252;2023-02-11T17:08:38;7.30;63.90
70734;DHT22;58320;48.804;9.252;2023-02-11T17:11:04;7.30;64.10
70734;DHT22;58320;48.804;9.252;2023-02-11T17:13:30;7.20;64.10
70734;DHT22;58320;48.804;9.252;2023-02-11T17:15:57;7.20;64.30
70734;DHT22;58320;48.804;9.252;2023-02-11T17:18:22;7.20;64.50
70734;DHT22;58320;48.804;9.252;2023-02-11T17:20:48;7.20;64.60
70734;DHT22;58320;48.804;9.252;2023-02-11T17:23:14;7.10;64.70
70734;DHT22;58320;48.804;9.252;2023-02-11T17:25:39;7.10;64.90
70734;DHT22;58320;48.804;9.252;2023-02-11T17:28:07;7.10;64.90
70734;DHT22;58320;48.804;9.252;2023-02-11T17:30:33;7.10;64.80
70734;DHT22;58320;48.804;9.252;2023-02-11T17:33:00;7.10;65.30
70734;DHT22;58320;48.804;9.252;2023-02-11T17:35:26;7.10;65.00
70734;DHT22;58320;48.804;9.252;2023-02-11T17:37:52;7.10;65.00
70734;DHT22;58320;48.804;9.252;2023-02-11T17:40:18;7.10;64.90
70734;DHT22;58320;48.804;9.252;2023-02-11T17:42:44;7.10;64.90
70734;DHT22;58320;48.804;9.252;2023-02-11T17:45:09;7.10;65.00
70734;DHT22;58320;48.804;9.252;2023-02-11T17:47:37;7.10;65.10
70734;DHT22;58320;48.804;9.252;2023-02-11T17:50:03;7.10;65.00
70734;DHT22;58320;48.804;9.252;2023-02-11T17:52:29;7.10;65.10
70734;DHT22;58320;48.804;9.252;2023-02-11T17:54:55;7.10;65.20
70734;DHT22;58320;48.804;9.252;2023-02-11T17:57:22;7.10;65.20
70734;DHT22;58320;48.804;9.252;2023-02-11T17:59:48;7.00;65.30
70734;DHT22;58320;48.804;9.252;2023-02-11T18:02:14;7.00;65.60
70734;DHT22;58320;48.804;9.252;2023-02-11T18:04:40;7.00;65.80
70734;DHT22;58320;48.804;9.252;2023-02-11T18:07:06;7.00;65.90
70734;DHT22;58320;48.804;9.252;2023-02-11T18:09:36;7.00;65.90
70734;DHT22;58320;48.804;9.252;2023-02-11T18:12:03;7.00;66.00
70734;DHT22;58320;48.804;9.252;2023-02-11T18:14:30;7.00;66.20
70734;DHT22;58320;48.804;9.252;2023-02-11T18:16:56;6.90;66.40
70734;DHT22;58320;48.804;9.252;2023-02-11T18:19:21;6.90;66.50
70734;DHT22;58320;48.804;9.252;2023-02-11T18:21:47;6.90;66.60
70734;DHT22;58320;48.804;9.252;2023-02-11T18:24:15;6.90;66.70
70734;DHT22;58320;48.804;9.252;2023-02-11T18:26:42;6.90;66.80
70734;DHT22;58320;48.804;9.252;2023-02-11T18:29:08;6.90;66.80
70734;DHT22;58320;48.804;9.252;2023-02-11T18:31:34;7.00;66.80
70734;DHT22;58320;48.804;9.252;2023-02-11T18:34:04;7.00;66.90
70734;DHT22;58320;48.804;9.252;2023-02-11T18:36:32;7.00;67.00
70734;DHT22;58320;48.804;9.252;2023-02-11T18:38:58;7.00;67.00
70734;DHT22;58320;48.804;9.252;2023-02-11T18:41:25;6.90;67.20
70734;DHT22;58320;48.804;9.252;2023-02-11T18:43:52;6.90;67.50
70734;DHT22;58320;48.804;9.252;2023-02-11T18:46:18;6.90;67.20
70734;DHT22;58320;48.804;9.252;2023-02-11T18:48:44;6.90;67.20